Lake Peekskill, New York
Current Conditions -  °F | °C
As of 4:45 PM on Wednesday 26 Nov 2014 (Local Time) from KSWF Reporting Station
Light Snow Light Snow  
Wind Chill: 22°   Ceiling: 300
Heat Index: 32°   Visibility: 0.75mi
Dew Point: 32°   Wind: 14mph
Humidity: 100%   Direction: 20°NNE
Pressure: 29.87"   Gusts: 23mph
Location:  41.33°N, 73.88°W
Report Text: KSWF 262145Z 02012G20KT 3/4SM R09/6000FT -SN OVC003 00/00 A2987 RMK PRESFR
Loading
Personal Weather Stations






























Interactive Weather Map New forecast layout! Learn more

10-Day Weather Forecast

Advertisements
Track Severe Weather on mobile